aviador You're here:

OITZ Decoded Metar

ZANJAN in IRAN
Report Time2018-06-25 11:00:00
UTC Time2018-06-25 11:49:18
Flight Rules vfr VFR
Wind130° at 04 kt
W.Decomp.*RWY 12: 4.0 kt HW 0.5 kt RCW
W.Rank130° ranks 5
Current wind is below 130° avg. (10.5)
Visibility9999 m
Phenomena:N/A
Clouds:N/A
Expected CloudBase > 10,000 ft AGL from Temp-Dew spread
CeilingNone
Temp33°C (ISA +29)
Dew Point08°C (21% RH)
Heat Index31.0°C
AAT31.0°C
QNH1015 hPa
Density Alt8,770 ft
Elevation5,456 ft
Report Wrong Elevation
Raw Report
METAR OITZ 251100Z 13004KT CAVOK 33/08 Q1015=

Extra information for OITZ:More info

Metar Taf Metar & Taf Last 4 Metars F.Rules Stats Wind Profile Meteogram Temp Stats Airport Information Weather charts Add Link Nearby VenuesMetar ALERT Operation Metar Decoded Social comments